Time;durP1;ratioP1;P1;durP2;ratioP2;P2;SDS_P1;SDS_P2;PMS_P1;PMS_P2;Temp;Humidity;BMP_temperature;BMP_pressure;BME280_temperature;BME280_humidity;BME280_pressure;Samples;Min_cycle;Max_cycle;Signal;HPM_P1;HPM_P2
2022/03/27 00:02:49;;;;;;;10.63;7.50;;;7.60;51.20;;;;;;6258645;28;20204;-55
2022/03/27 00:05:50;;;;;;;9.23;7.27;;;7.50;51.60;;;;;;6256363;28;20192;-57
2022/03/27 00:08:51;;;;;;;9.57;7.53;;;7.50;51.30;;;;;;6255463;28;20197;-55
2022/03/27 00:11:52;;;;;;;11.20;7.30;;;7.50;50.90;;;;;;6255385;28;20224;-58
2022/03/27 00:14:53;;;;;;;11.73;8.03;;;7.40;51.30;;;;;;6280040;28;20223;-55
2022/03/27 00:17:53;;;;;;;11.53;7.30;;;7.40;51.80;;;;;;6275421;28;20280;-54
2022/03/27 00:20:54;;;;;;;10.30;7.23;;;7.30;52.40;;;;;;6260586;28;20193;-54
2022/03/27 00:23:55;;;;;;;9.43;7.80;;;7.30;52.10;;;;;;6293456;28;20273;-56
2022/03/27 00:26:56;;;;;;;13.80;8.57;;;7.20;52.40;;;;;;6256785;28;20263;-53
2022/03/27 00:29:57;;;;;;;10.03;8.17;;;7.20;52.40;;;;;;6292546;28;20197;-58
2022/03/27 00:32:57;;;;;;;12.87;7.33;;;7.20;52.40;;;;;;6296479;28;20217;-57
2022/03/27 00:36:00;;;;;;;10.50;7.90;;;7.30;51.70;;;;;;6262540;28;20205;-58
2022/03/27 00:39:01;;;;;;;10.40;8.20;;;7.20;51.70;;;;;;6284440;28;20190;-58
2022/03/27 00:42:02;;;;;;;11.17;7.87;;;7.20;52.30;;;;;;6267908;28;20251;-58
2022/03/27 00:45:03;;;;;;;10.07;7.33;;;7.10;52.40;;;;;;6251992;28;20212;-58
2022/03/27 00:48:04;;;;;;;11.00;7.73;;;7.10;52.60;;;;;;6283073;28;20289;-58
2022/03/27 00:51:05;;;;;;;9.40;7.37;;;7.00;52.80;;;;;;6270302;28;20217;-59
2022/03/27 00:54:06;;;;;;;8.70;7.13;;;6.90;53.30;;;;;;6270965;28;20192;-58
2022/03/27 00:57:07;;;;;;;10.30;7.70;;;6.90;53.80;;;;;;6270086;28;20234;-56
2022/03/27 01:00:17;;;;;;;10.67;7.67;;;6.80;53.90;;;;;;6301098;28;20246;-56
2022/03/27 01:03:21;;;;;;;11.27;8.00;;;6.70;53.90;;;;;;6318000;28;20214;-55
2022/03/27 01:06:29;;;;;;;9.97;7.30;;;6.60;54.20;;;;;;6326331;28;20189;-55
2022/03/27 01:09:35;;;;;;;10.57;8.30;;;6.40;54.60;;;;;;6303825;28;20197;-59
2022/03/27 01:12:39;;;;;;;10.33;8.07;;;6.40;54.80;;;;;;6289174;28;20291;-59
2022/03/27 01:15:53;;;;;;;11.60;7.53;;;6.40;54.70;;;;;;6283703;28;20196;-58
2022/03/27 01:18:53;;;;;;;13.37;7.40;;;6.30;54.90;;;;;;6306572;28;20262;-56
2022/03/27 01:21:54;;;;;;;11.43;7.83;;;6.30;55.20;;;;;;6274859;28;20193;-57
2022/03/27 01:24:55;;;;;;;8.50;7.07;;;6.20;55.50;;;;;;6307596;28;20193;-56
2022/03/27 01:27:56;;;;;;;11.33;7.83;;;6.20;55.50;;;;;;6307877;28;20330;-56
2022/03/27 01:30:57;;;;;;;9.93;7.43;;;6.20;55.10;;;;;;6297398;28;20206;-55
2022/03/27 01:33:58;;;;;;;8.53;7.00;;;6.30;54.80;;;;;;6275539;28;20194;-58
2022/03/27 01:37:10;;;;;;;10.70;8.63;;;6.40;55.00;;;;;;6280608;28;20185;-59
2022/03/27 01:40:11;;;;;;;10.37;7.20;;;6.30;55.40;;;;;;6266920;28;20286;-59
2022/03/27 01:43:11;;;;;;;12.70;7.97;;;6.20;55.60;;;;;;6290690;28;20224;-59
2022/03/27 01:46:13;;;;;;;11.30;7.50;;;6.20;55.80;;;;;;6274741;28;20173;-59
2022/03/27 01:49:15;;;;;;;10.63;8.07;;;6.20;55.90;;;;;;6274317;28;20193;-58
2022/03/27 01:52:16;;;;;;;9.43;7.57;;;6.10;56.00;;;;;;6291937;28;20224;-59
2022/03/27 01:55:17;;;;;;;8.50;6.77;;;6.00;56.00;;;;;;6298436;28;20197;-59
2022/03/27 01:58:18;;;;;;;11.27;7.50;;;6.00;56.60;;;;;;6275084;28;20188;-59
2022/03/27 02:01:22;;;;;;;11.27;8.33;;;5.80;57.00;;;;;;6274887;28;20183;-58
2022/03/27 02:04:22;;;;;;;12.17;7.57;;;5.80;56.90;;;;;;6265778;28;20289;-57
2022/03/27 02:07:23;;;;;;;11.30;7.73;;;5.80;57.10;;;;;;6273929;28;20194;-58
2022/03/27 02:10:24;;;;;;;11.90;8.13;;;5.80;57.10;;;;;;6291038;28;20200;-58
2022/03/27 02:13:25;;;;;;;10.63;8.03;;;5.80;57.20;;;;;;6273780;28;20185;-56
2022/03/27 02:16:26;;;;;;;9.60;7.17;;;5.80;56.70;;;;;;6290636;28;20263;-58
2022/03/27 02:19:26;;;;;;;11.73;7.63;;;5.80;57.00;;;;;;6307829;28;20189;-58
2022/03/27 02:22:27;;;;;;;10.07;7.83;;;5.80;57.00;;;;;;6290619;28;20619;-57
2022/03/27 02:25:28;;;;;;;10.77;7.57;;;5.80;56.90;;;;;;6270830;28;20197;-56
2022/03/27 02:28:29;;;;;;;9.97;7.47;;;5.70;56.90;;;;;;6290604;28;20237;-57
2022/03/27 02:31:29;;;;;;;11.83;7.47;;;5.70;57.10;;;;;;6295830;28;20224;-57
2022/03/27 02:34:30;;;;;;;10.07;6.97;;;5.80;56.90;;;;;;6271704;28;20190;-58
2022/03/27 02:37:31;;;;;;;12.70;8.20;;;5.80;57.10;;;;;;6273383;28;20188;-58
2022/03/27 02:40:33;;;;;;;11.50;7.67;;;5.80;57.00;;;;;;6250611;28;20203;-57
2022/03/27 02:43:38;;;;;;;11.17;8.10;;;5.70;57.10;;;;;;6265384;28;20198;-58
2022/03/27 02:46:39;;;;;;;12.53;8.07;;;5.60;57.20;;;;;;6265398;28;20190;-57
2022/03/27 02:49:40;;;;;;;9.23;7.73;;;5.50;57.60;;;;;;6265704;28;20203;-57
2022/03/27 02:52:40;;;;;;;9.10;7.57;;;5.40;58.10;;;;;;6265765;28;20236;-58
2022/03/27 02:55:41;;;;;;;11.67;7.47;;;5.40;58.00;;;;;;6260203;28;20291;-57
2022/03/27 02:58:42;;;;;;;13.30;7.80;;;5.30;58.20;;;;;;6290352;28;20211;-58
2022/03/27 03:01:43;;;;;;;10.80;7.27;;;5.30;58.30;;;;;;6262157;28;20197;-57
2022/03/27 03:04:44;;;;;;;11.57;7.47;;;5.30;58.60;;;;;;6323945;28;20202;-57
2022/03/27 03:07:45;;;;;;;9.50;7.27;;;5.10;58.90;;;;;;6306804;28;20219;-57
2022/03/27 03:10:46;;;;;;;10.40;7.67;;;5.20;58.80;;;;;;6294053;28;20315;-57
2022/03/27 03:13:49;;;;;;;10.00;7.30;;;5.30;58.50;;;;;;6269742;28;20186;-57
2022/03/27 03:16:51;;;;;;;9.63;7.63;;;5.30;58.40;;;;;;6264712;28;20216;-58
2022/03/27 03:19:52;;;;;;;11.60;8.00;;;5.30;58.20;;;;;;6271878;28;20207;-58
2022/03/27 03:22:53;;;;;;;12.97;8.43;;;5.20;59.00;;;;;;6272852;28;20633;-58
2022/03/27 03:25:55;;;;;;;10.20;7.77;;;5.10;59.50;;;;;;6273355;28;20201;-55
2022/03/27 03:28:56;;;;;;;10.70;7.70;;;5.10;59.20;;;;;;6285965;28;20240;-57
2022/03/27 03:31:57;;;;;;;11.67;8.13;;;5.10;59.20;;;;;;6323730;28;20213;-58
2022/03/27 03:34:58;;;;;;;10.50;7.67;;;5.00;59.10;;;;;;6289501;28;20189;-57
2022/03/27 03:37:59;;;;;;;11.67;7.80;;;5.10;59.50;;;;;;6303788;28;20197;-58
2022/03/27 03:41:01;;;;;;;12.93;8.47;;;5.00;59.50;;;;;;6258712;28;20193;-59
2022/03/27 03:44:02;;;;;;;11.70;8.23;;;5.10;59.20;;;;;;6272908;28;20197;-57
2022/03/27 03:47:03;;;;;;;11.47;7.80;;;5.20;58.60;;;;;;6306322;28;20243;-59
2022/03/27 03:50:05;;;;;;;9.80;8.43;;;5.30;58.50;;;;;;6273992;28;20208;-60
2022/03/27 03:53:06;;;;;;;10.17;7.87;;;5.10;58.70;;;;;;6310538;28;20271;-58
2022/03/27 03:56:08;;;;;;;10.17;7.47;;;5.20;58.50;;;;;;6311512;28;20212;-58
2022/03/27 03:59:09;;;;;;;11.57;9.27;;;5.10;58.80;;;;;;6293819;28;20190;-57
2022/03/27 04:02:10;;;;;;;10.53;7.73;;;5.10;58.80;;;;;;6308580;28;20205;-58
2022/03/27 04:05:11;;;;;;;12.00;7.80;;;5.00;59.20;;;;;;6285475;28;20248;-58
2022/03/27 04:08:14;;;;;;;14.53;8.50;;;5.20;58.50;;;;;;6294343;28;20185;-58
2022/03/27 04:11:18;;;;;;;13.40;8.93;;;5.10;58.70;;;;;;6277582;28;20216;-58
2022/03/27 04:14:19;;;;;;;12.33;8.13;;;5.10;59.00;;;;;;6309821;28;20231;-57
2022/03/27 04:17:20;;;;;;;11.93;8.57;;;5.00;58.90;;;;;;6292964;28;20185;-57
2022/03/27 04:20:21;;;;;;;12.70;7.73;;;5.00;59.10;;;;;;6252016;28;20186;-58
2022/03/27 04:23:22;;;;;;;11.50;8.90;;;5.10;59.00;;;;;;6268964;28;20194;-59
2022/03/27 04:26:22;;;;;;;11.77;9.00;;;5.10;58.80;;;;;;6252528;28;20215;-59
2022/03/27 04:29:23;;;;;;;12.63;7.77;;;5.30;58.10;;;;;;6260756;28;20192;-58
2022/03/27 04:32:24;;;;;;;15.60;7.90;;;5.30;57.80;;;;;;6259680;28;20234;-58
2022/03/27 04:35:25;;;;;;;11.50;8.23;;;5.40;57.40;;;;;;6259782;28;20257;-59
2022/03/27 04:38:25;;;;;;;12.63;8.47;;;5.40;57.70;;;;;;6248739;28;20243;-58
2022/03/27 04:41:26;;;;;;;14.90;8.50;;;5.30;58.50;;;;;;6259731;28;20215;-58
2022/03/27 04:44:27;;;;;;;11.07;7.97;;;5.30;58.60;;;;;;6275760;28;20197;-58
2022/03/27 04:47:28;;;;;;;13.30;9.03;;;5.20;58.90;;;;;;6259657;28;20194;-59
2022/03/27 04:50:29;;;;;;;12.77;8.17;;;5.10;59.10;;;;;;6274502;28;20238;-59
2022/03/27 04:53:29;;;;;;;12.47;8.17;;;5.00;59.10;;;;;;6274262;28;20223;-59
2022/03/27 04:56:31;;;;;;;12.83;8.93;;;5.10;59.10;;;;;;6271188;28;20192;-59
2022/03/27 04:59:32;;;;;;;13.13;9.40;;;5.00;59.40;;;;;;6258342;28;20200;-58
2022/03/27 05:02:33;;;;;;;12.07;8.30;;;5.00;59.30;;;;;;6266949;28;20215;-60
2022/03/27 05:05:34;;;;;;;11.40;8.60;;;5.00;59.50;;;;;;6249857;28;20208;-58
2022/03/27 05:08:35;;;;;;;12.50;8.20;;;5.20;59.20;;;;;;6248063;28;20200;-59
2022/03/27 05:11:38;;;;;;;11.00;8.13;;;5.30;58.80;;;;;;6253339;28;20232;-59
2022/03/27 05:14:39;;;;;;;13.27;8.63;;;5.30;58.10;;;;;;6259246;28;20200;-58
2022/03/27 05:17:53;;;;;;;11.57;8.13;;;5.40;57.90;;;;;;6260792;28;20200;-57
2022/03/27 05:20:53;;;;;;;13.33;9.33;;;5.50;57.80;;;;;;6251042;28;20198;-59
2022/03/27 05:23:54;;;;;;;13.57;8.20;;;5.50;58.00;;;;;;6263995;28;20211;-57
2022/03/27 05:26:55;;;;;;;14.13;8.63;;;5.50;58.50;;;;;;6256000;28;20248;-57
2022/03/27 05:29:56;;;;;;;13.07;9.87;;;5.40;59.10;;;;;;6268136;28;20216;-54
2022/03/27 05:32:56;;;;;;;17.27;9.63;;;5.30;59.40;;;;;;6277227;28;20222;-56
2022/03/27 05:35:57;;;;;;;12.10;9.53;;;5.30;59.70;;;;;;6277520;28;20267;-57
2022/03/27 05:38:58;;;;;;;15.03;9.30;;;5.10;60.30;;;;;;6272814;28;20195;-56
2022/03/27 05:41:59;;;;;;;14.80;8.87;;;5.10;60.50;;;;;;6273719;28;20205;-55
2022/03/27 05:45:00;;;;;;;13.10;8.97;;;5.10;60.40;;;;;;6265354;28;20206;-57
2022/03/27 05:48:01;;;;;;;12.00;8.90;;;5.10;60.40;;;;;;6279187;28;20267;-56
2022/03/27 05:51:03;;;;;;;12.97;9.07;;;5.20;60.50;;;;;;6275700;28;20205;-57
2022/03/27 05:54:03;;;;;;;11.77;8.90;;;5.20;60.60;;;;;;6277065;28;20349;-56
2022/03/27 05:57:04;;;;;;;13.37;8.70;;;5.20;60.90;;;;;;6280227;28;20200;-57
2022/03/27 06:00:08;;;;;;;13.43;8.50;;;5.40;60.80;;;;;;6281686;28;20191;-57
2022/03/27 06:03:09;;;;;;;13.50;9.03;;;5.50;60.70;;;;;;6284609;28;20262;-57
2022/03/27 06:06:10;;;;;;;13.20;9.23;;;5.50;60.20;;;;;;6279324;28;20196;-56
2022/03/27 06:09:11;;;;;;;11.83;8.77;;;5.50;60.30;;;;;;6278138;28;20196;-56
2022/03/27 06:12:12;;;;;;;14.70;9.00;;;5.60;60.30;;;;;;6272502;28;20223;-56
2022/03/27 06:15:14;;;;;;;16.63;8.43;;;5.70;60.70;;;;;;6271502;28;20193;-56
2022/03/27 06:18:15;;;;;;;13.70;8.90;;;5.80;59.60;;;;;;6293183;28;20192;-55
2022/03/27 06:21:16;;;;;;;13.63;9.97;;;5.80;59.90;;;;;;6276687;28;20196;-56
2022/03/27 06:24:17;;;;;;;13.57;8.73;;;6.00;59.00;;;;;;6271508;28;20225;-56
2022/03/27 06:27:17;;;;;;;14.97;9.80;;;6.20;58.30;;;;;;6272556;28;20246;-57
2022/03/27 06:30:21;;;;;;;13.03;8.97;;;6.30;58.50;;;;;;6273269;28;20197;-53
2022/03/27 06:33:22;;;;;;;12.63;8.03;;;6.30;58.40;;;;;;6296273;28;20229;-56
2022/03/27 06:36:23;;;;;;;13.07;7.37;;;6.40;57.40;;;;;;6272663;28;20193;-54
2022/03/27 06:39:23;;;;;;;12.90;9.17;;;6.50;57.50;;;;;;6276218;28;20208;-57
2022/03/27 06:42:26;;;;;;;13.50;8.67;;;6.70;56.80;;;;;;6277961;28;20208;-57
2022/03/27 06:45:27;;;;;;;13.10;9.20;;;6.70;56.90;;;;;;6284525;28;20189;-57
2022/03/27 06:48:28;;;;;;;14.20;9.27;;;6.80;56.90;;;;;;6269334;28;20197;-56
2022/03/27 06:51:29;;;;;;;12.70;8.87;;;6.80;57.50;;;;;;6257890;28;20246;-55
2022/03/27 06:54:30;;;;;;;13.47;9.43;;;6.90;56.40;;;;;;6278030;28;20199;-55
2022/03/27 06:57:32;;;;;;;12.87;8.83;;;7.10;56.30;;;;;;6273395;28;20274;-56
2022/03/27 07:03:53;;;;;;;12.97;8.57;;;7.20;55.60;;;;;;6273730;28;20178;-58
2022/03/27 07:06:54;;;;;;;15.63;10.43;;;7.30;54.90;;;;;;6268395;28;20225;-58
2022/03/27 07:09:55;;;;;;;12.13;8.60;;;7.40;54.40;;;;;;6243491;28;20193;-60
2022/03/27 07:12:55;;;;;;;10.80;7.80;;;7.50;54.50;;;;;;6268249;28;20308;-58
2022/03/27 07:15:57;;;;;;;16.33;9.20;;;7.60;55.20;;;;;;6258675;28;20201;-58
2022/03/27 07:18:58;;;;;;;13.87;8.67;;;7.70;53.70;;;;;;6267549;28;20193;-57
2022/03/27 07:21:59;;;;;;;14.73;9.57;;;7.80;55.40;;;;;;6255945;28;20209;-59
2022/03/27 07:24:59;;;;;;;13.67;9.47;;;7.80;54.40;;;;;;6282173;28;20238;-56
2022/03/27 07:28:01;;;;;;;14.97;9.40;;;7.90;53.60;;;;;;6247923;28;20257;-57
2022/03/27 07:31:02;;;;;;;14.47;8.87;;;8.10;52.80;;;;;;6252793;28;20219;-56
2022/03/27 07:34:03;;;;;;;11.40;8.70;;;8.10;53.40;;;;;;6280689;28;20189;-55
2022/03/27 07:37:04;;;;;;;13.67;10.13;;;8.30;52.70;;;;;;6278489;28;20189;-50
2022/03/27 07:40:08;;;;;;;12.20;9.00;;;8.30;52.40;;;;;;6277249;28;20204;-55
2022/03/27 07:43:09;;;;;;;14.53;10.20;;;8.50;52.10;;;;;;6277718;28;20178;-58
2022/03/27 07:46:09;;;;;;;14.03;9.10;;;8.60;51.40;;;;;;6266450;28;20206;-55
2022/03/27 07:49:11;;;;;;;12.93;10.07;;;8.80;52.20;;;;;;6292863;28;20232;-52
2022/03/27 07:52:12;;;;;;;13.77;9.57;;;8.80;51.10;;;;;;6278480;28;20205;-52
2022/03/27 07:55:15;;;;;;;12.67;9.60;;;8.90;50.80;;;;;;6303036;28;20216;-54
2022/03/27 07:58:17;;;;;;;14.20;9.20;;;9.00;50.80;;;;;;6302059;28;20644;-56
2022/03/27 08:01:18;;;;;;;14.23;10.10;;;9.10;50.10;;;;;;6271367;28;20248;-54
2022/03/27 08:04:19;;;;;;;17.63;10.50;;;9.30;49.70;;;;;;6252997;28;20292;-52
2022/03/27 08:07:20;;;;;;;16.33;10.93;;;9.30;49.90;;;;;;6273390;28;20193;-50
2022/03/27 08:10:21;;;;;;;16.63;10.07;;;9.40;49.50;;;;;;6280648;28;20206;-55
2022/03/27 08:13:21;;;;;;;17.70;10.20;;;9.60;48.80;;;;;;6277393;28;20225;-55
2022/03/27 08:16:22;;;;;;;13.57;9.80;;;9.70;48.50;;;;;;6275446;28;20189;-52
2022/03/27 08:19:23;;;;;;;13.97;9.30;;;9.80;48.40;;;;;;6272944;28;20233;-53
2022/03/27 08:22:24;;;;;;;13.53;10.20;;;9.80;48.20;;;;;;6264070;28;20198;-54
2022/03/27 08:28:45;;;;;;;17.73;9.93;;;10.30;45.60;;;;;;6277592;28;20238;-52
2022/03/27 08:31:45;;;;;;;15.10;9.90;;;10.40;44.60;;;;;;6258386;28;20236;-54
2022/03/27 08:34:47;;;;;;;16.63;9.83;;;10.60;43.90;;;;;;6274020;28;20192;-54
2022/03/27 08:37:48;;;;;;;16.13;10.00;;;10.70;43.10;;;;;;6251658;28;20192;-54
2022/03/27 08:40:53;;;;;;;14.00;9.30;;;10.90;42.80;;;;;;6243738;28;20452;-54
2022/03/27 08:43:58;;;;;;;14.93;10.30;;;10.90;43.50;;;;;;6251239;28;20190;-55
2022/03/27 08:46:59;;;;;;;17.10;10.80;;;11.00;43.00;;;;;;6242346;28;20273;-56
2022/03/27 08:50:13;;;;;;;16.00;10.80;;;11.20;42.70;;;;;;6257249;28;20189;-56
2022/03/27 08:53:18;;;;;;;16.50;10.77;;;11.30;43.00;;;;;;6254959;28;20214;-53
2022/03/27 08:56:19;;;;;;;21.93;11.67;;;11.70;42.20;;;;;;6256151;28;20194;-53
2022/03/27 08:59:21;;;;;;;13.67;9.70;;;11.90;41.40;;;;;;6240764;28;20220;-54
2022/03/27 09:02:25;;;;;;;16.20;11.17;;;11.90;41.80;;;;;;6257682;28;20201;-56
2022/03/27 09:05:26;;;;;;;18.73;11.23;;;12.10;40.60;;;;;;6255196;28;20239;-55
2022/03/27 09:08:29;;;;;;;15.23;10.80;;;12.20;40.80;;;;;;6255054;28;20197;-54
2022/03/27 09:11:32;;;;;;;18.10;10.67;;;12.30;40.00;;;;;;6215324;28;20207;-53
2022/03/27 09:14:34;;;;;;;25.90;12.57;;;12.30;39.60;;;;;;6239319;28;20190;-55
2022/03/27 09:17:58;;;;;;;16.70;11.33;;;12.50;40.90;;;;;;6255975;28;20652;-55
2022/03/27 09:21:01;;;;;;;17.97;11.23;;;12.60;41.70;;;;;;6255531;28;20199;-54
2022/03/27 09:24:02;;;;;;;18.97;13.07;;;12.70;40.80;;;;;;6239587;28;20304;-52
2022/03/27 09:27:05;;;;;;;19.13;13.17;;;12.80;40.10;;;;;;6240211;28;20276;-55
2022/03/27 09:30:12;;;;;;;20.73;12.83;;;12.80;39.70;;;;;;6240114;28;20201;-55
2022/03/27 09:33:39;;;;;;;24.93;14.43;;;12.90;39.20;;;;;;6240030;28;20218;-56
2022/03/27 09:36:44;;;;;;;19.33;13.40;;;13.00;39.50;;;;;;6223793;28;20194;-57
2022/03/27 09:39:57;;;;;;;19.43;12.93;;;13.20;39.20;;;;;;6238481;28;20657;-54
2022/03/27 09:43:12;;;;;;;18.70;13.67;;;13.20;40.40;;;;;;6239994;28;20198;-54
2022/03/27 09:46:13;;;;;;;20.77;13.73;;;13.40;39.80;;;;;;6256760;28;20190;-56
2022/03/27 09:49:15;;;;;;;25.57;14.50;;;13.60;38.90;;;;;;6237959;28;20232;-54
2022/03/27 09:52:19;;;;;;;20.40;13.17;;;13.80;38.90;;;;;;6247057;28;20213;-56
2022/03/27 09:55:20;;;;;;;21.83;14.60;;;13.80;39.30;;;;;;6244124;28;20202;-56
2022/03/27 09:58:43;;;;;;;25.97;15.40;;;13.80;39.00;;;;;;6241140;28;20189;-53
2022/03/27 10:01:44;;;;;;;23.73;14.67;;;14.10;38.40;;;;;;6253981;28;20224;-54
2022/03/27 10:05:02;;;;;;;22.83;15.57;;;14.00;38.20;;;;;;6217450;28;20182;-56
2022/03/27 10:08:04;;;;;;;21.43;15.20;;;14.00;38.40;;;;;;6224437;28;20193;-56
2022/03/27 10:11:05;;;;;;;22.00;14.93;;;14.00;37.70;;;;;;6222496;28;20218;-56
2022/03/27 10:14:07;;;;;;;23.57;15.43;;;14.30;37.30;;;;;;6217126;28;20270;-56
2022/03/27 10:17:10;;;;;;;23.67;16.23;;;14.30;37.40;;;;;;6217055;28;20252;-55
2022/03/27 10:20:20;;;;;;;28.07;19.50;;;14.50;37.50;;;;;;6216906;28;20241;-56
2022/03/27 10:23:26;;;;;;;25.73;16.33;;;14.70;40.30;;;;;;6233619;28;20187;-57
2022/03/27 10:26:29;;;;;;;22.47;15.67;;;14.80;38.10;;;;;;6255039;28;20230;-54
2022/03/27 10:29:30;;;;;;;24.23;16.03;;;14.90;37.80;;;;;;6266861;28;20197;-56
2022/03/27 10:32:32;;;;;;;23.57;16.17;;;15.00;37.60;;;;;;6243259;28;20210;-55
2022/03/27 10:35:36;;;;;;;22.67;16.00;;;15.30;35.80;;;;;;6233735;28;20213;-57
2022/03/27 10:38:39;;;;;;;25.30;16.20;;;15.30;37.50;;;;;;6257340;28;20201;-55
2022/03/27 10:41:57;;;;;;;22.77;15.53;;;15.50;34.90;;;;;;6245795;28;20264;-56
2022/03/27 10:45:07;;;;;;;25.40;16.43;;;15.30;34.50;;;;;;6252159;28;20343;-55
2022/03/27 10:48:15;;;;;;;22.93;16.03;;;15.60;34.80;;;;;;6257212;28;20265;-57
2022/03/27 10:51:25;;;;;;;25.43;16.10;;;15.60;35.50;;;;;;6256488;28;20250;-57
2022/03/27 10:54:26;;;;;;;27.03;14.27;;;15.70;33.00;;;;;;6242478;28;20202;-55
2022/03/27 10:57:29;;;;;;;24.97;15.07;;;15.80;30.20;;;;;;6240298;28;20266;-56
2022/03/27 11:00:41;;;;;;;27.27;16.47;;;16.00;32.40;;;;;;6256382;28;20212;-55
2022/03/27 11:04:04;;;;;;;25.47;17.13;;;16.10;31.40;;;;;;6239877;28;20277;-57
2022/03/27 11:07:17;;;;;;;29.43;17.23;;;16.30;31.20;;;;;;6255928;28;20285;-56
2022/03/27 11:10:40;;;;;;;25.33;17.40;;;16.30;31.30;;;;;;6249210;28;20269;-57
2022/03/27 11:13:43;;;;;;;26.47;17.70;;;16.30;31.60;;;;;;6236925;28;20260;-58
2022/03/27 11:17:03;;;;;;;24.20;15.87;;;16.20;30.70;;;;;;6248308;28;20200;-58
2022/03/27 11:20:25;;;;;;;25.37;16.23;;;16.30;31.40;;;;;;6254720;28;20281;-56
2022/03/27 11:23:27;;;;;;;20.80;14.90;;;16.30;31.20;;;;;;6266704;28;20193;-57
2022/03/27 11:26:29;;;;;;;23.37;15.87;;;16.50;30.50;;;;;;6222558;28;20199;-55
2022/03/27 11:29:30;;;;;;;26.93;14.83;;;16.60;30.40;;;;;;6281596;28;20217;-57
2022/03/27 11:32:32;;;;;;;21.83;16.10;;;16.80;31.40;;;;;;6231858;28;20210;-58
2022/03/27 11:35:32;;;;;;;22.87;15.80;;;17.10;31.00;;;;;;6239875;28;20225;-56
2022/03/27 11:38:51;;;;;;;24.70;15.60;;;17.30;30.10;;;;;;6245497;28;20187;-56
2022/03/27 11:41:52;;;;;;;25.20;16.13;;;17.50;30.20;;;;;;6268011;28;20191;-58
2022/03/27 11:45:14;;;;;;;23.60;15.60;;;17.80;32.40;;;;;;6273142;28;20198;-57
2022/03/27 11:48:16;;;;;;;22.50;16.30;;;18.00;28.60;;;;;;6250990;28;20251;-58
2022/03/27 11:51:17;;;;;;;22.00;15.63;;;18.00;28.60;;;;;;6268019;28;20218;-57
2022/03/27 11:54:22;;;;;;;23.67;16.53;;;18.20;30.30;;;;;;6255803;28;20232;-58
2022/03/27 11:57:23;;;;;;;23.47;16.00;;;18.40;30.10;;;;;;6273099;28;20213;-58
2022/03/27 12:00:34;;;;;;;22.97;15.37;;;18.50;28.40;;;;;;6240176;28;20185;-58
2022/03/27 12:03:39;;;;;;;25.00;15.40;;;18.60;28.40;;;;;;6256047;28;20205;-58
2022/03/27 12:06:40;;;;;;;21.17;15.27;;;18.90;28.20;;;;;;6256539;28;20190;-51
2022/03/27 12:09:40;;;;;;;27.03;16.27;;;19.30;28.30;;;;;;6235302;28;20202;-60
2022/03/27 12:12:58;;;;;;;25.07;16.07;;;19.60;28.40;;;;;;6254707;28;20276;-60
2022/03/27 12:15:58;;;;;;;21.20;15.43;;;19.90;27.30;;;;;;6293709;28;20178;-60
2022/03/27 12:19:12;;;;;;;19.87;14.47;;;20.20;26.40;;;;;;6262182;28;20196;-61
2022/03/27 12:22:15;;;;;;;22.80;15.43;;;22.10;24.90;;;;;;6281680;28;20193;-60
2022/03/27 12:25:20;;;;;;;24.23;16.47;;;24.40;21.50;;;;;;6277919;28;20351;-60
2022/03/27 12:31:42;;;;;;;19.60;15.90;;;27.50;18.60;;;;;;6258062;28;20213;-61
2022/03/27 12:34:54;;;;;;;22.33;16.57;;;27.70;18.90;;;;;;6226009;28;20202;-58
2022/03/27 12:37:56;;;;;;;19.47;16.70;;;27.70;18.40;;;;;;6235476;28;20189;-59
2022/03/27 12:40:56;;;;;;;23.63;17.27;;;27.80;18.10;;;;;;6251452;28;20210;-59
2022/03/27 12:43:58;;;;;;;19.90;16.70;;;27.70;18.00;;;;;;6218958;28;20175;-62
2022/03/27 12:46:59;;;;;;;18.90;16.47;;;27.70;17.90;;;;;;6229776;28;20201;-61
2022/03/27 12:50:01;;;;;;;21.00;17.27;;;27.30;19.20;;;;;;6237606;28;20194;-59
2022/03/27 12:53:04;;;;;;;20.17;16.47;;;26.80;18.90;;;;;;6246256;28;20229;-59
2022/03/27 12:56:05;;;;;;;19.37;14.93;;;27.00;19.50;;;;;;6235034;28;20179;-59
2022/03/27 12:59:20;;;;;;;19.93;16.13;;;27.20;19.40;;;;;;6234990;28;20186;-59
2022/03/27 13:02:26;;;;;;;16.83;14.83;;;27.50;18.50;;;;;;6234713;28;20226;-59
2022/03/27 13:05:28;;;;;;;20.83;16.50;;;28.20;17.90;;;;;;6251269;28;20210;-58
2022/03/27 13:08:29;;;;;;;18.43;15.13;;;29.30;17.70;;;;;;6256886;28;20193;-56
2022/03/27 13:11:31;;;;;;;18.93;15.83;;;31.10;16.70;;;;;;6258756;28;20212;-56
2022/03/27 13:14:44;;;;;;;18.33;15.43;;;32.80;15.50;;;;;;6252963;28;20193;-56
2022/03/27 13:17:45;;;;;;;18.07;15.63;;;35.30;14.00;;;;;;6274780;28;20190;-57
2022/03/27 13:20:46;;;;;;;18.30;14.53;;;37.80;12.30;;;;;;6242931;28;20217;-57
2022/03/27 13:23:47;;;;;;;19.03;15.23;;;39.40;11.60;;;;;;6250949;28;20206;-57
2022/03/27 13:26:54;;;;;;;17.57;15.33;;;39.90;10.90;;;;;;6248992;28;20232;-58
2022/03/27 13:29:55;;;;;;;17.50;15.67;;;40.10;11.10;;;;;;6265170;28;20267;-58
2022/03/27 13:32:58;;;;;;;20.60;15.43;;;40.70;10.50;;;;;;6243013;28;20201;-58
2022/03/27 13:35:58;;;;;;;20.40;16.50;;;40.90;10.50;;;;;;6254251;28;20185;-61
2022/03/27 13:39:04;;;;;;;18.33;16.43;;;40.20;10.30;;;;;;6241626;28;20247;-61
2022/03/27 13:45:28;;;;;;;18.47;14.90;;;41.10;9.80;;;;;;6265364;28;20195;-58
2022/03/27 13:48:29;;;;;;;16.50;14.50;;;41.60;9.60;;;;;;6246097;28;20189;-53
2022/03/27 13:51:30;;;;;;;20.70;15.43;;;41.40;9.80;;;;;;6272466;28;20415;-57
2022/03/27 13:54:31;;;;;;;19.10;15.33;;;41.40;9.50;;;;;;6255581;28;20222;-57
2022/03/27 13:57:32;;;;;;;18.93;16.77;;;40.80;9.80;;;;;;6250521;28;20735;-54
2022/03/27 14:00:34;;;;;;;19.17;15.37;;;41.30;9.60;;;;;;6260644;28;20197;-56
2022/03/27 14:03:35;;;;;;;18.10;15.13;;;40.70;10.10;;;;;;6254648;28;20222;-56
2022/03/27 14:06:36;;;;;;;20.13;14.23;;;42.30;9.50;;;;;;6231116;28;20206;-55
2022/03/27 14:09:39;;;;;;;20.43;15.87;;;43.20;9.30;;;;;;6276770;28;20196;-56
2022/03/27 14:12:41;;;;;;;17.10;15.30;;;43.00;9.50;;;;;;6217195;28;20222;-56
2022/03/27 14:15:42;;;;;;;18.17;15.13;;;43.20;9.00;;;;;;6217930;28;20336;-57
2022/03/27 14:18:44;;;;;;;18.37;16.10;;;42.50;9.50;;;;;;6249918;28;20190;-58
2022/03/27 14:21:45;;;;;;;19.27;15.30;;;42.10;9.80;;;;;;6216659;28;20197;-49
2022/03/27 14:24:49;;;;;;;15.30;13.33;;;42.80;9.00;;;;;;6267872;28;20197;-56
2022/03/27 14:27:49;;;;;;;17.40;15.27;;;42.90;8.70;;;;;;6251955;28;20230;-52
2022/03/27 14:30:51;;;;;;;17.93;15.57;;;42.00;9.10;;;;;;6290127;28;20208;-54
2022/03/27 14:33:51;;;;;;;19.07;16.07;;;41.70;9.20;;;;;;6249494;28;20248;-49
2022/03/27 14:36:52;;;;;;;17.77;14.57;;;42.10;9.50;;;;;;6249391;28;20179;-54
2022/03/27 14:39:54;;;;;;;16.17;14.57;;;40.40;9.90;;;;;;6258481;28;20190;-50
2022/03/27 14:42:54;;;;;;;20.33;15.63;;;40.70;9.90;;;;;;6288387;28;20198;-52
2022/03/27 14:45:57;;;;;;;15.43;13.67;;;40.80;9.90;;;;;;6282308;28;20186;-54
2022/03/27 14:48:59;;;;;;;16.23;14.53;;;40.40;10.20;;;;;;6276348;28;20209;-54
2022/03/27 14:51:59;;;;;;;16.37;14.13;;;39.60;10.60;;;;;;6288137;28;20217;-53
2022/03/27 14:58:19;;;;;;;16.27;14.67;;;40.50;10.30;;;;;;6290292;28;20215;-55
2022/03/27 15:01:20;;;;;;;17.87;14.30;;;40.70;10.00;;;;;;6284492;28;20197;-54
2022/03/27 15:04:21;;;;;;;18.23;15.00;;;41.00;9.80;;;;;;6249110;28;20195;-50
2022/03/27 15:07:21;;;;;;;17.33;15.43;;;40.80;9.70;;;;;;6248694;28;20191;-55
2022/03/27 15:10:22;;;;;;;20.53;15.17;;;40.80;10.00;;;;;;6255558;28;20233;-51
2022/03/27 15:13:24;;;;;;;17.87;14.37;;;40.20;10.30;;;;;;6290242;28;20217;-53
2022/03/27 15:16:25;;;;;;;17.53;15.27;;;39.20;11.20;;;;;;6279790;28;20201;-52
2022/03/27 15:19:26;;;;;;;21.33;14.87;;;38.20;11.10;;;;;;6278034;28;20213;-51
2022/03/27 15:22:27;;;;;;;17.73;14.70;;;33.90;13.30;;;;;;6267192;28;20209;-53
2022/03/27 15:25:27;;;;;;;19.00;15.20;;;30.20;16.20;;;;;;6286435;28;20241;-53
2022/03/27 15:28:29;;;;;;;19.27;14.43;;;28.90;17.80;;;;;;6280694;28;20336;-51
2022/03/27 15:31:29;;;;;;;16.57;14.27;;;28.10;18.50;;;;;;6314507;28;20219;-50
2022/03/27 15:34:31;;;;;;;19.97;13.80;;;27.50;19.50;;;;;;6281078;28;20178;-52
2022/03/27 15:37:33;;;;;;;18.23;14.23;;;26.60;20.10;;;;;;6299589;28;20199;-54
2022/03/27 15:40:33;;;;;;;18.43;14.17;;;26.00;20.20;;;;;;6272885;28;20188;-52
2022/03/27 15:43:35;;;;;;;18.20;13.50;;;25.40;21.00;;;;;;6266796;28;20202;-54
2022/03/27 15:46:36;;;;;;;15.77;12.17;;;24.80;21.30;;;;;;6295073;28;20194;-56
2022/03/27 15:49:37;;;;;;;18.70;13.47;;;24.40;23.00;;;;;;6288757;28;20205;-51
2022/03/27 15:52:39;;;;;;;16.17;12.93;;;24.20;22.60;;;;;;6292200;28;20251;-54
2022/03/27 15:55:39;;;;;;;17.93;13.03;;;23.80;23.70;;;;;;6301861;28;20235;-54
2022/03/27 15:58:40;;;;;;;17.37;12.97;;;23.60;23.40;;;;;;6293899;28;20197;-50